createdAt,value
2018-02-01T00:00:11.405Z,2.81
2018-02-01T00:01:11.358Z,2.84
2018-02-01T00:02:11.361Z,2.86
2018-02-01T00:03:11.268Z,2.77
2018-02-01T00:04:11.220Z,2.79
2018-02-01T00:05:11.170Z,2.83
2018-02-01T00:06:11.125Z,2.81
2018-02-01T00:07:11.080Z,2.74
2018-02-01T00:08:11.084Z,2.86
2018-02-01T00:09:10.994Z,2.73
2018-02-01T00:10:10.940Z,2.73
2018-02-01T00:11:11.191Z,2.86
2018-02-01T00:12:10.843Z,2.95
2018-02-01T00:13:10.797Z,2.94
2018-02-01T00:14:10.799Z,2.90
2018-02-01T00:15:10.702Z,2.84
2018-02-01T00:16:10.655Z,2.73
2018-02-01T00:17:10.908Z,2.81
2018-02-01T00:18:10.561Z,2.81
2018-02-01T00:19:10.515Z,2.77
2018-02-01T00:20:10.468Z,2.74
2018-02-01T00:21:10.419Z,2.89
2018-02-01T00:22:10.374Z,2.86
2018-02-01T00:23:10.628Z,2.79
2018-02-01T00:24:10.283Z,2.69
2018-02-01T00:25:10.283Z,2.77
2018-02-01T00:26:10.275Z,2.83
2018-02-01T00:27:10.144Z,2.84
2018-02-01T00:28:10.132Z,2.84
2018-02-01T00:29:10.346Z,2.90
2018-02-01T00:30:10.054Z,2.77
2018-02-01T00:31:10.006Z,2.68
2018-02-01T00:32:09.908Z,2.62
2018-02-01T00:33:09.861Z,2.76
2018-02-01T00:34:09.816Z,2.66
2018-02-01T00:35:09.777Z,2.68
2018-02-01T00:36:10.018Z,2.63
2018-02-01T00:37:09.675Z,2.66
2018-02-01T00:38:09.625Z,2.66
2018-02-01T00:39:09.578Z,2.66
2018-02-01T00:40:09.532Z,2.68
2018-02-01T00:41:09.483Z,2.55
2018-02-01T00:42:09.437Z,2.56
2018-02-01T00:43:09.690Z,2.59
2018-02-01T00:44:09.344Z,2.47
2018-02-01T00:45:09.296Z,2.56
2018-02-01T00:46:09.249Z,2.44
2018-02-01T00:47:09.204Z,2.56
2018-02-01T00:48:09.164Z,2.63
2018-02-01T00:49:09.109Z,2.65
2018-02-01T00:50:09.363Z,2.66
2018-02-01T00:51:09.015Z,2.61
2018-02-01T00:52:09.078Z,2.63
2018-02-01T00:53:08.921Z,2.56
2018-02-01T00:54:08.877Z,2.53
2018-02-01T00:55:08.827Z,2.61
2018-02-01T00:56:08.779Z,2.44
2018-02-01T00:57:09.036Z,2.37
2018-02-01T00:58:08.897Z,2.32
2018-02-01T00:59:08.645Z,2.47
2018-02-01T01:00:08.599Z,2.53
2018-02-01T01:01:08.544Z,2.55
2018-02-01T01:02:08.499Z,2.47
2018-02-01T01:03:08.453Z,2.61
2018-02-01T01:04:08.706Z,2.56
2018-02-01T01:05:08.356Z,2.63
2018-02-01T01:06:08.312Z,2.59
2018-02-01T01:07:08.263Z,2.50
2018-02-01T01:08:08.216Z,2.43
2018-02-01T01:09:08.167Z,2.56
2018-02-01T01:10:08.448Z,2.55
2018-02-01T01:11:08.075Z,2.61
2018-02-01T01:12:08.029Z,2.58
2018-02-01T01:13:07.981Z,2.55
2018-02-01T01:14:07.933Z,2.55
2018-02-01T01:15:07.885Z,2.56
2018-02-01T01:16:08.139Z,2.51
2018-02-01T01:17:07.793Z,2.53
2018-02-01T01:18:07.743Z,2.65
2018-02-01T01:19:07.702Z,2.62
2018-02-01T01:20:07.654Z,2.58
2018-02-01T01:21:07.603Z,2.65
2018-02-01T01:22:07.854Z,2.62
2018-02-01T01:23:07.512Z,2.63
2018-02-01T01:24:07.496Z,2.68
2018-02-01T01:25:07.414Z,2.68
2018-02-01T01:26:07.366Z,2.56
2018-02-01T01:27:07.321Z,2.62
2018-02-01T01:28:07.572Z,2.55
2018-02-01T01:29:07.225Z,2.50
2018-02-01T01:30:07.178Z,2.59
2018-02-01T01:31:07.131Z,2.55
2018-02-01T01:32:07.086Z,2.58
2018-02-01T01:33:07.036Z,2.56
2018-02-01T01:34:07.347Z,2.48
2018-02-01T01:35:06.945Z,2.51
2018-02-01T01:36:06.895Z,2.55
2018-02-01T01:37:06.850Z,2.55
2018-02-01T01:38:06.801Z,2.65
2018-02-01T01:39:06.756Z,2.58
2018-02-01T01:40:07.009Z,2.69
2018-02-01T01:41:06.694Z,2.62
2018-02-01T01:42:06.622Z,2.62
2018-02-01T01:43:06.574Z,2.69
2018-02-01T01:44:06.529Z,2.76
2018-02-01T01:45:06.525Z,2.63
2018-02-01T01:46:06.428Z,2.68
2018-02-01T01:47:06.684Z,2.59
2018-02-01T01:48:06.333Z,2.61
2018-02-01T01:49:06.284Z,2.66
2018-02-01T01:50:06.257Z,2.62
2018-02-01T01:51:06.243Z,2.65
2018-02-01T01:52:06.141Z,2.66
2018-02-01T01:53:06.094Z,2.63
2018-02-01T01:54:06.373Z,2.66
2018-02-01T01:55:06.004Z,2.61
2018-02-01T01:56:05.954Z,2.68
2018-02-01T01:57:06.060Z,2.69
2018-02-01T01:58:05.914Z,2.62
2018-02-01T01:59:05.813Z,2.65
2018-02-01T02:00:05.765Z,2.63
2018-02-01T02:01:06.021Z,2.65
2018-02-01T02:02:05.673Z,2.65
2018-02-01T02:03:05.629Z,2.65
2018-02-01T02:04:05.577Z,2.62
2018-02-01T02:05:05.533Z,2.63
2018-02-01T02:06:05.482Z,2.71
2018-02-01T02:07:05.436Z,2.56
2018-02-01T02:08:05.689Z,2.62
2018-02-01T02:09:05.349Z,2.59
2018-02-01T02:10:05.295Z,2.63
2018-02-01T02:11:05.249Z,2.68
2018-02-01T02:12:05.201Z,2.61
2018-02-01T02:13:05.209Z,2.66
2018-02-01T02:14:05.157Z,2.69
2018-02-01T02:15:05.363Z,2.69
2018-02-01T02:16:05.014Z,2.65
2018-02-01T02:17:04.965Z,2.59
2018-02-01T02:18:04.930Z,2.53
2018-02-01T02:19:04.871Z,2.66
2018-02-01T02:20:04.824Z,2.51
2018-02-01T02:21:05.076Z,2.55
2018-02-01T02:22:04.733Z,2.50
2018-02-01T02:23:04.681Z,2.53
2018-02-01T02:24:04.687Z,2.55
2018-02-01T02:25:04.589Z,2.40
2018-02-01T02:26:04.550Z,2.36
2018-02-01T02:27:04.794Z,2.43
2018-02-01T02:28:04.463Z,2.30
2018-02-01T02:29:04.400Z,2.37
2018-02-01T02:30:04.356Z,2.43
2018-02-01T02:31:04.311Z,2.33
2018-02-01T02:32:04.260Z,2.33
2018-02-01T02:33:04.521Z,2.27
2018-02-01T02:34:04.168Z,2.33
2018-02-01T02:36:04.127Z,2.48
2018-02-01T02:37:04.031Z,2.45
2018-02-01T02:38:03.982Z,2.43
2018-02-01T02:39:04.232Z,2.43
2018-02-01T02:40:03.886Z,2.44
2018-02-01T02:41:03.839Z,2.53
2018-02-01T02:42:03.842Z,2.40
2018-02-01T02:43:03.747Z,2.48
2018-02-01T02:44:03.701Z,2.50
2018-02-01T02:45:03.952Z,2.47
2018-02-01T02:46:03.604Z,2.40
2018-02-01T02:47:03.559Z,2.36
2018-02-01T02:48:03.508Z,2.37
2018-02-01T02:49:03.461Z,2.41
2018-02-01T02:50:03.417Z,2.50
2018-02-01T02:51:03.671Z,2.53
2018-02-01T02:52:03.388Z,2.55
2018-02-01T02:53:03.275Z,2.58
2018-02-01T02:54:03.234Z,2.58
2018-02-01T02:55:03.179Z,2.58
2018-02-01T02:56:03.138Z,2.55
2018-02-01T02:57:03.085Z,2.51
2018-02-01T02:58:03.338Z,2.53
2018-02-01T02:59:02.992Z,2.43
2018-02-01T03:00:02.956Z,2.55
2018-02-01T03:01:02.894Z,2.50
2018-02-01T03:02:02.849Z,2.47
2018-02-01T03:03:02.802Z,2.45
2018-02-01T03:04:02.805Z,2.43
2018-02-01T03:05:03.007Z,2.44
2018-02-01T03:06:02.709Z,2.43
2018-02-01T03:07:02.665Z,2.47
2018-02-01T03:08:02.621Z,2.55
2018-02-01T03:09:02.518Z,2.50
2018-02-01T03:10:02.528Z,2.55
2018-02-01T03:11:02.424Z,2.53
2018-02-01T03:12:02.678Z,2.65
2018-02-01T03:13:02.334Z,2.66
2018-02-01T03:14:02.282Z,2.71
2018-02-01T03:15:02.239Z,2.66
2018-02-01T03:16:02.190Z,2.61
2018-02-01T03:17:02.191Z,2.63
2018-02-01T03:18:02.145Z,2.68
2018-02-01T03:19:02.347Z,2.63
2018-02-01T03:20:02.001Z,2.63
2018-02-01T03:21:01.953Z,2.69
2018-02-01T03:22:01.906Z,2.66
2018-02-01T03:23:01.860Z,2.63
2018-02-01T03:24:01.814Z,2.65
2018-02-01T03:25:01.767Z,2.56
2018-02-01T03:26:02.020Z,2.69
2018-02-01T03:27:01.671Z,2.65
2018-02-01T03:28:01.629Z,2.63
2018-02-01T03:29:01.578Z,2.63
2018-02-01T03:30:01.529Z,2.65
2018-02-01T03:31:01.485Z,2.63
2018-02-01T03:32:01.742Z,2.66
2018-02-01T03:33:01.389Z,2.59
2018-02-01T03:34:01.341Z,2.65
2018-02-01T03:35:01.296Z,2.71
2018-02-01T03:36:01.299Z,2.71
2018-02-01T03:37:01.199Z,2.68
2018-02-01T03:38:01.452Z,2.65
2018-02-01T03:39:01.108Z,2.62
2018-02-01T03:40:01.060Z,2.61
2018-02-01T03:41:01.011Z,2.65
2018-02-01T03:42:01.012Z,2.63
2018-02-01T03:43:00.918Z,2.62
2018-02-01T03:44:01.174Z,2.62
2018-02-01T03:45:00.876Z,2.63
2018-02-01T03:46:00.775Z,2.65
2018-02-01T03:47:00.730Z,2.56
2018-02-01T03:48:00.681Z,2.53
2018-02-01T03:49:00.635Z,2.48
2018-02-01T03:50:00.896Z,2.55
2018-02-01T03:51:00.543Z,2.58
2018-02-01T03:52:00.496Z,2.62
2018-02-01T03:53:00.448Z,2.66
2018-02-01T03:54:00.398Z,2.66
2018-02-01T03:55:00.354Z,2.69
2018-02-01T03:56:00.604Z,2.71
2018-02-01T03:57:00.257Z,2.59
2018-02-01T03:58:00.260Z,2.62
2018-02-01T03:59:00.174Z,2.58
2018-02-01T04:00:00.117Z,2.65
2018-02-01T04:01:00.075Z,2.73
2018-02-01T04:02:00.022Z,2.63
2018-02-01T04:03:00.273Z,2.69
2018-02-01T04:03:59.977Z,2.66
2018-02-01T04:04:59.880Z,2.71
2018-02-01T04:05:59.834Z,2.66
2018-02-01T04:06:59.786Z,2.63
2018-02-01T04:07:59.738Z,2.58
2018-02-01T04:08:59.694Z,2.71
2018-02-01T04:09:59.944Z,2.61
2018-02-01T04:10:59.597Z,2.58
2018-02-01T04:11:59.550Z,2.74
2018-02-01T04:12:59.501Z,2.71
2018-02-01T04:13:59.458Z,2.62
2018-02-01T04:14:59.408Z,2.61
2018-02-01T04:15:59.359Z,2.65
2018-02-01T04:16:59.616Z,2.73
2018-02-01T04:17:59.269Z,2.68
2018-02-01T04:18:59.219Z,2.65
2018-02-01T04:19:59.181Z,2.65
2018-02-01T04:20:59.128Z,2.66
2018-02-01T04:21:59.078Z,2.65
2018-02-01T04:22:59.032Z,2.81
2018-02-01T04:23:59.286Z,2.74
2018-02-01T04:24:58.936Z,2.66
2018-02-01T04:25:58.890Z,2.63
2018-02-01T04:26:58.842Z,2.65
2018-02-01T04:27:58.798Z,2.73
2018-02-01T04:28:58.752Z,2.65
2018-02-01T04:29:58.753Z,2.68
2018-02-01T04:30:58.955Z,2.71
2018-02-01T04:31:58.609Z,2.65
2018-02-01T04:32:58.569Z,2.84
2018-02-01T04:33:58.512Z,2.69
2018-02-01T04:34:58.467Z,2.71
2018-02-01T04:35:58.419Z,2.63
2018-02-01T04:36:58.370Z,2.58
2018-02-01T04:37:58.626Z,2.73
2018-02-01T04:38:58.276Z,2.65
2018-02-01T04:39:58.234Z,2.61
2018-02-01T04:40:58.181Z,2.62
2018-02-01T04:41:58.136Z,2.73
2018-02-01T04:42:58.089Z,2.66
2018-02-01T04:43:58.342Z,2.68
2018-02-01T04:44:57.995Z,2.76
2018-02-01T04:45:57.998Z,2.66
2018-02-01T04:46:57.906Z,2.65
2018-02-01T04:47:57.906Z,2.66
2018-02-01T04:48:57.806Z,2.61
2018-02-01T04:49:58.058Z,2.66
2018-02-01T04:50:57.734Z,2.66
2018-02-01T04:51:57.715Z,2.71
2018-02-01T04:52:57.616Z,2.68
2018-02-01T04:53:57.570Z,2.66
2018-02-01T04:54:57.525Z,2.77
2018-02-01T04:55:57.777Z,2.79
2018-02-01T04:56:57.427Z,2.63
2018-02-01T04:57:57.532Z,2.69
2018-02-01T04:58:57.339Z,2.61
2018-02-01T04:59:57.292Z,2.66
2018-02-01T05:00:57.251Z,2.76
2018-02-01T05:01:57.494Z,2.68
2018-02-01T05:02:57.149Z,2.68
2018-02-01T05:03:57.154Z,2.71
2018-02-01T05:04:57.053Z,2.66
2018-02-01T05:05:57.005Z,2.68
2018-02-01T05:06:56.957Z,2.69
2018-02-01T05:07:57.210Z,2.68
2018-02-01T05:08:56.863Z,2.71
2018-02-01T05:09:56.815Z,2.68
2018-02-01T05:10:56.771Z,2.71
2018-02-01T05:11:56.723Z,2.76
2018-02-01T05:12:56.677Z,2.65
2018-02-01T05:13:56.626Z,2.59
2018-02-01T05:14:56.879Z,2.59
2018-02-01T05:15:56.590Z,2.68
2018-02-01T05:16:56.486Z,2.62
2018-02-01T05:17:56.443Z,2.62
2018-02-01T05:18:56.442Z,2.62
2018-02-01T05:19:56.346Z,2.69
2018-02-01T05:20:56.296Z,2.66
2018-02-01T05:21:56.575Z,2.74
2018-02-01T05:22:56.203Z,2.69
2018-02-01T05:23:56.162Z,2.65
2018-02-01T05:24:56.159Z,2.63
2018-02-01T05:25:56.064Z,2.68
2018-02-01T05:26:56.017Z,2.69
2018-02-01T05:27:55.969Z,2.74
2018-02-01T05:28:56.224Z,2.68
2018-02-01T05:29:55.881Z,2.73
2018-02-01T05:30:55.827Z,2.73
2018-02-01T05:31:55.780Z,2.63
2018-02-01T05:32:55.733Z,2.62
2018-02-01T05:33:55.688Z,2.66
2018-02-01T05:34:55.639Z,2.63
2018-02-01T05:35:55.891Z,2.65
2018-02-01T05:36:55.543Z,2.68
2018-02-01T05:37:55.497Z,2.61
2018-02-01T05:38:55.451Z,2.61
2018-02-01T05:39:55.403Z,2.56
2018-02-01T05:40:55.355Z,2.68
2018-02-01T05:41:55.322Z,2.62
2018-02-01T05:42:55.563Z,2.71
2018-02-01T05:43:55.217Z,2.65
2018-02-01T05:44:55.167Z,2.69
2018-02-01T05:45:55.173Z,2.58
2018-02-01T05:46:55.127Z,2.65
2018-02-01T05:47:55.084Z,2.73
2018-02-01T05:48:54.982Z,2.65
2018-02-01T05:49:55.240Z,2.63
2018-02-01T05:50:54.940Z,2.59
2018-02-01T05:51:54.840Z,2.55
2018-02-01T05:52:54.793Z,2.66
2018-02-01T05:53:54.794Z,2.62
2018-02-01T05:54:54.696Z,2.55
2018-02-01T05:55:54.948Z,2.51
2018-02-01T05:56:54.657Z,2.50
2018-02-01T05:57:54.557Z,2.55
2018-02-01T05:58:54.507Z,2.51
2018-02-01T05:59:54.463Z,2.43
2018-02-01T06:00:54.411Z,2.45
2018-02-01T06:01:54.666Z,2.45
2018-02-01T06:02:54.469Z,2.38
2018-02-01T06:03:54.272Z,2.51
2018-02-01T06:04:54.223Z,2.53
2018-02-01T06:05:54.177Z,2.55
2018-02-01T06:06:54.134Z,2.51
2018-02-01T06:07:54.389Z,2.66
2018-02-01T06:08:54.041Z,2.59
2018-02-01T06:09:53.987Z,2.53
2018-02-01T06:10:53.946Z,2.56
2018-02-01T06:11:53.894Z,2.58
2018-02-01T06:12:53.855Z,2.58
2018-02-01T06:13:54.103Z,2.61
2018-02-01T06:14:53.774Z,2.53
2018-02-01T06:15:53.704Z,2.53
2018-02-01T06:16:53.657Z,2.51
2018-02-01T06:17:53.611Z,2.50
2018-02-01T06:18:53.571Z,2.48
2018-02-01T06:19:53.819Z,2.32
2018-02-01T06:20:53.470Z,2.41
2018-02-01T06:21:53.420Z,2.47
2018-02-01T06:22:53.377Z,2.36
2018-02-01T06:23:53.331Z,2.29
2018-02-01T06:24:53.279Z,2.30
2018-02-01T06:25:53.232Z,2.32
2018-02-01T06:26:53.489Z,2.33
2018-02-01T06:27:53.148Z,2.50
2018-02-01T06:28:53.142Z,2.53
2018-02-01T06:29:53.045Z,2.50
2018-02-01T06:30:53.000Z,2.40
2018-02-01T06:31:52.951Z,2.41
2018-02-01T06:32:52.903Z,2.45
2018-02-01T06:33:53.155Z,2.48
2018-02-01T06:34:52.857Z,2.41
2018-02-01T06:35:52.812Z,2.44
2018-02-01T06:36:52.716Z,2.43
2018-02-01T06:37:53.671Z,2.41
2018-02-01T06:38:52.789Z,2.32
2018-02-01T06:39:53.063Z,2.26
2018-02-01T06:40:53.329Z,2.48
2018-02-01T06:41:52.526Z,2.40
2018-02-01T06:42:53.445Z,2.44
2018-02-01T06:43:53.628Z,2.44
2018-02-01T06:44:53.174Z,2.38
2018-02-01T06:45:52.940Z,2.32
2018-02-01T06:46:52.947Z,2.41
2018-02-01T06:47:53.927Z,2.25
2018-02-01T06:48:53.140Z,2.40
2018-02-01T06:49:52.100Z,2.48
2018-02-01T06:50:52.053Z,2.44
2018-02-01T06:51:52.005Z,2.43
2018-02-01T06:52:51.956Z,2.45
2018-02-01T06:53:51.913Z,2.45
2018-02-01T06:54:52.164Z,2.29
2018-02-01T06:55:51.866Z,2.43
2018-02-01T06:56:51.829Z,2.45
2018-02-01T06:57:51.719Z,2.41
2018-02-01T06:58:51.722Z,2.56
2018-02-01T06:59:51.628Z,2.56
2018-02-01T07:00:51.879Z,2.38
2018-02-01T07:01:51.587Z,2.41
2018-02-01T07:02:51.482Z,2.38
2018-02-01T07:03:51.477Z,2.30
2018-02-01T07:04:51.451Z,2.33
2018-02-01T07:05:51.341Z,2.37
2018-02-01T07:06:51.596Z,2.40
2018-02-01T07:07:51.353Z,2.41
2018-02-01T07:08:51.213Z,2.50
2018-02-01T07:09:51.153Z,2.43
2018-02-01T07:10:51.105Z,2.44
2018-02-01T07:11:51.063Z,2.40
2018-02-01T07:12:51.308Z,2.43
2018-02-01T07:13:50.962Z,2.33
2018-02-01T07:14:50.915Z,2.37
2018-02-01T07:15:50.867Z,2.44
2018-02-01T07:16:50.819Z,2.44
2018-02-01T07:17:50.772Z,2.30
2018-02-01T07:18:51.024Z,2.30
2018-02-01T07:19:50.678Z,2.37
2018-02-01T07:20:50.685Z,2.30
2018-02-01T07:21:50.584Z,2.30
2018-02-01T07:22:50.534Z,2.25
2018-02-01T07:23:50.495Z,2.27
2018-02-01T07:24:50.750Z,2.29
2018-02-01T07:25:50.395Z,2.43
2018-02-01T07:26:50.345Z,2.40
2018-02-01T07:27:50.299Z,2.30
2018-02-01T07:28:50.309Z,2.33
2018-02-01T07:29:50.204Z,2.33
2018-02-01T07:30:50.306Z,2.29
2018-02-01T07:31:50.410Z,2.29
2018-02-01T07:32:50.062Z,2.26
2018-02-01T07:33:50.015Z,2.40
2018-02-01T07:34:49.974Z,2.50
2018-02-01T07:35:49.936Z,2.40
2018-02-01T07:36:49.879Z,2.44
2018-02-01T07:37:49.826Z,2.30
2018-02-01T07:38:50.079Z,2.44
2018-02-01T07:39:49.734Z,2.37
2018-02-01T07:40:49.686Z,2.48
2018-02-01T07:41:49.688Z,2.55
2018-02-01T07:42:49.592Z,2.58
2018-02-01T07:43:49.546Z,2.66
2018-02-01T07:44:49.503Z,2.65
2018-02-01T07:45:49.754Z,2.69
2018-02-01T07:46:49.454Z,2.66
2018-02-01T07:47:49.509Z,2.65
2018-02-01T07:48:49.313Z,2.59
2018-02-01T07:49:49.263Z,2.76
2018-02-01T07:50:49.216Z,2.86
2018-02-01T07:51:49.170Z,2.95
2018-02-01T07:52:49.422Z,3.08
2018-02-01T07:53:49.080Z,3.33
2018-02-01T07:54:49.063Z,3.26
2018-02-01T07:55:48.985Z,3.02
2018-02-01T07:56:48.937Z,2.98
2018-02-01T07:57:48.894Z,3.08
2018-02-01T07:58:48.854Z,3.15
2018-02-01T07:59:49.100Z,3.12
2018-02-01T08:00:48.752Z,3.10
2018-02-01T08:01:48.707Z,3.16
2018-02-01T08:02:48.662Z,3.12
2018-02-01T08:03:48.612Z,3.13
2018-02-01T08:04:48.571Z,3.13
2018-02-01T08:05:48.527Z,3.26
2018-02-01T08:06:48.825Z,3.39
2018-02-01T08:07:48.520Z,3.80
2018-02-01T08:08:48.438Z,4.02
2018-02-01T08:09:48.436Z,4.06
2018-02-01T08:10:48.294Z,3.80
2018-02-01T08:11:48.244Z,3.39
2018-02-01T08:12:48.503Z,3.50
2018-02-01T08:13:48.153Z,3.26
2018-02-01T08:14:48.111Z,3.39
2018-02-01T08:15:48.084Z,3.25
2018-02-01T08:16:48.019Z,3.25
2018-02-01T08:17:47.973Z,3.15
2018-02-01T08:18:48.234Z,3.08
2018-02-01T08:19:47.933Z,3.01
2018-02-01T08:20:47.991Z,2.94
2018-02-01T08:21:47.793Z,2.90
2018-02-01T08:22:47.746Z,2.99
2018-02-01T08:23:47.700Z,2.90
2018-02-01T08:24:47.954Z,2.99
2018-02-01T08:25:47.662Z,2.95
2018-02-01T08:26:47.564Z,2.97
2018-02-01T08:27:47.573Z,2.95
2018-02-01T08:28:47.472Z,2.97
2018-02-01T08:29:47.425Z,2.94
2018-02-01T08:30:47.682Z,3.07
2018-02-01T08:31:47.334Z,3.08
2018-02-01T08:32:47.289Z,3.07
2018-02-01T08:33:47.250Z,3.10
2018-02-01T08:34:47.225Z,3.10
2018-02-01T08:35:47.171Z,3.13
2018-02-01T08:36:47.409Z,3.10
2018-02-01T08:37:47.060Z,3.10
2018-02-01T08:38:47.164Z,3.17
2018-02-01T08:39:46.988Z,3.31
2018-02-01T08:40:46.924Z,3.19
2018-02-01T08:41:46.877Z,3.25
2018-02-01T08:42:46.881Z,3.26
2018-02-01T08:43:47.085Z,3.46
2018-02-01T08:44:46.742Z,3.57
2018-02-01T08:45:46.745Z,4.02
2018-02-01T08:46:46.659Z,3.84
2018-02-01T08:47:46.603Z,3.72
2018-02-01T08:48:46.557Z,3.70
2018-02-01T08:49:46.561Z,3.49
2018-02-01T08:50:46.901Z,3.35
2018-02-01T08:51:46.424Z,3.39
2018-02-01T08:52:46.425Z,3.37
2018-02-01T08:53:46.334Z,3.35
2018-02-01T08:54:46.285Z,3.46
2018-02-01T08:55:46.238Z,3.25
2018-02-01T08:56:46.193Z,3.33
2018-02-01T08:57:46.448Z,3.45
2018-02-01T08:58:46.153Z,3.60
2018-02-01T08:59:46.058Z,3.52
2018-02-01T09:00:46.062Z,3.53
2018-02-01T09:01:45.966Z,3.42
2018-02-01T09:02:45.927Z,3.52
2018-02-01T09:03:45.882Z,3.60
2018-02-01T09:04:46.131Z,3.78
2018-02-01T09:05:45.788Z,3.77
2018-02-01T09:06:45.740Z,3.67
2018-02-01T09:07:45.697Z,3.46
2018-02-01T09:08:45.648Z,3.50
2018-02-01T09:09:45.653Z,3.56
2018-02-01T09:10:45.561Z,3.60
2018-02-01T09:11:45.814Z,3.74
2018-02-01T09:12:45.517Z,3.81
2018-02-01T09:13:45.422Z,3.95
2018-02-01T09:14:45.377Z,3.95
2018-02-01T09:15:45.383Z,3.88
2018-02-01T09:16:45.288Z,3.90
2018-02-01T09:17:45.293Z,3.95
2018-02-01T09:18:45.498Z,3.90
2018-02-01T09:19:45.195Z,4.10
2018-02-01T09:20:45.119Z,3.96
2018-02-01T09:21:45.061Z,4.00
2018-02-01T09:22:45.019Z,3.89
2018-02-01T09:23:45.022Z,3.99
2018-02-01T09:24:45.229Z,4.00
2018-02-01T09:25:44.882Z,3.89
2018-02-01T09:26:44.837Z,3.99
2018-02-01T09:27:44.793Z,4.11
2018-02-01T09:28:44.748Z,4.57
2018-02-01T09:29:44.759Z,4.99
2018-02-01T09:30:44.969Z,4.69
2018-02-01T09:31:44.617Z,4.38
2018-02-01T09:32:44.574Z,4.38
2018-02-01T09:33:44.525Z,4.32
2018-02-01T09:34:44.479Z,4.29
2018-02-01T09:35:44.441Z,4.34
2018-02-01T09:36:44.694Z,4.99
2018-02-01T09:37:44.347Z,4.61
2018-02-01T09:38:44.310Z,4.47
2018-02-01T09:39:44.259Z,4.43
2018-02-01T09:40:44.217Z,4.35
2018-02-01T09:41:44.183Z,4.38
2018-02-01T09:42:44.427Z,4.69
2018-02-01T09:43:44.136Z,5.92
2018-02-01T09:44:44.039Z,6.90
2018-02-01T09:45:44.000Z,6.30
2018-02-01T09:46:44.004Z,5.85
2018-02-01T09:47:43.910Z,5.17
2018-02-01T09:48:44.174Z,4.88
2018-02-01T09:49:43.877Z,5.19
2018-02-01T09:50:43.778Z,6.10
2018-02-01T09:51:43.786Z,5.95
2018-02-01T09:52:43.695Z,5.81
2018-02-01T09:53:43.656Z,5.60
2018-02-01T09:54:43.614Z,5.32
2018-02-01T09:55:43.919Z,5.37
2018-02-01T09:56:43.526Z,6.05
2018-02-01T09:57:43.490Z,6.54
2018-02-01T09:58:43.444Z,5.74
2018-02-01T09:59:43.397Z,4.94
2018-02-01T10:00:43.354Z,4.87
2018-02-01T10:01:43.371Z,5.30
2018-02-01T10:02:43.578Z,5.52
2018-02-01T10:03:43.227Z,5.38
2018-02-01T10:04:43.188Z,5.84
2018-02-01T10:05:43.143Z,6.19
2018-02-01T10:06:43.150Z,5.55
2018-02-01T10:07:43.058Z,5.20
2018-02-01T10:08:43.018Z,5.59
2018-02-01T10:09:43.342Z,5.24
2018-02-01T10:10:42.932Z,5.45
2018-02-01T10:11:42.888Z,6.50
2018-02-01T10:12:42.935Z,7.24
2018-02-01T10:13:42.804Z,7.16
2018-02-01T10:14:42.762Z,7.09
2018-02-01T10:15:42.771Z,6.02
2018-02-01T10:16:43.027Z,5.66
2018-02-01T10:17:42.641Z,5.60
2018-02-01T10:18:42.593Z,5.48
2018-02-01T10:19:42.563Z,5.52
2018-02-01T10:20:42.573Z,5.44
2018-02-01T10:21:42.471Z,5.58
2018-02-01T10:22:42.429Z,5.58
2018-02-01T10:23:42.694Z,5.24
2018-02-01T10:24:42.344Z,5.24
2018-02-01T10:25:42.321Z,5.20
2018-02-01T10:26:42.312Z,5.26
2018-02-01T10:27:42.272Z,5.42
2018-02-01T10:28:42.180Z,5.45
2018-02-01T10:29:42.161Z,5.55
2018-02-01T10:30:42.440Z,5.55
2018-02-01T10:31:42.099Z,5.58
2018-02-01T10:32:42.002Z,5.51
2018-02-01T10:33:41.967Z,5.62
2018-02-01T10:34:41.918Z,5.73
2018-02-01T10:35:41.954Z,5.73
2018-02-01T10:36:42.142Z,5.60
2018-02-01T10:37:41.844Z,5.66
2018-02-01T10:38:41.752Z,5.45
2018-02-01T10:39:41.760Z,5.60
2018-02-01T10:40:41.757Z,5.66
2018-02-01T10:41:41.619Z,5.62
2018-02-01T10:42:41.876Z,5.58
2018-02-01T10:43:41.533Z,5.58
2018-02-01T10:44:41.491Z,5.41
2018-02-01T10:45:41.598Z,5.48
2018-02-01T10:46:41.414Z,5.47
2018-02-01T10:47:41.361Z,5.42
2018-02-01T10:48:41.666Z,5.24
2018-02-01T10:49:41.324Z,5.24
2018-02-01T10:50:41.282Z,5.26
2018-02-01T10:51:41.241Z,5.29
2018-02-01T10:52:41.143Z,5.19
2018-02-01T10:53:41.099Z,5.12
2018-02-01T10:54:41.058Z,5.15
2018-02-01T10:55:41.064Z,5.19
2018-02-01T10:56:40.969Z,5.20
2018-02-01T10:57:40.926Z,5.20
2018-02-01T10:58:40.882Z,5.29
2018-02-01T10:59:40.840Z,5.40
2018-02-01T11:00:41.094Z,5.51
2018-02-01T11:01:40.750Z,5.38
2018-02-01T11:02:40.760Z,5.48
2018-02-01T11:03:40.662Z,5.24
2018-02-01T11:04:40.618Z,5.24
2018-02-01T11:05:40.626Z,5.20
2018-02-01T11:06:40.539Z,5.19
2018-02-01T11:07:40.790Z,5.12
2018-02-01T11:08:40.448Z,4.99
2018-02-01T11:09:40.451Z,4.96
2018-02-01T11:10:40.406Z,4.86
2018-02-01T11:11:40.314Z,4.83
2018-02-01T11:12:40.273Z,4.71
2018-02-01T11:13:40.225Z,4.75
2018-02-01T11:14:40.480Z,4.84
2018-02-01T11:15:40.141Z,4.69
2018-02-01T11:16:40.345Z,4.74
2018-02-01T11:17:40.094Z,4.72
2018-02-01T11:18:40.020Z,4.80
2018-02-01T11:19:39.961Z,4.77
2018-02-01T11:20:39.918Z,4.77
2018-02-01T11:21:40.185Z,4.67
2018-02-01T11:22:39.882Z,4.67
2018-02-01T11:23:39.781Z,4.64
2018-02-01T11:24:39.735Z,4.67
2018-02-01T11:25:39.739Z,4.64
2018-02-01T11:26:39.644Z,4.75
2018-02-01T11:27:39.604Z,4.68
2018-02-01T11:28:39.857Z,4.86
2018-02-01T11:29:39.573Z,4.79
2018-02-01T11:30:39.471Z,4.80
2018-02-01T11:31:39.474Z,4.67
2018-02-01T11:32:39.433Z,4.62
2018-02-01T11:33:39.331Z,4.61
2018-02-01T11:34:39.339Z,4.59
2018-02-01T11:35:39.613Z,4.62
2018-02-01T11:36:39.202Z,4.51
2018-02-01T11:37:39.202Z,4.42
2018-02-01T11:38:39.163Z,4.39
2018-02-01T11:39:39.129Z,4.50
2018-02-01T11:40:39.066Z,4.44
2018-02-01T11:41:38.975Z,4.38
2018-02-01T11:42:39.230Z,4.44
2018-02-01T11:43:38.884Z,4.44
2018-02-01T11:44:38.888Z,4.36
2018-02-01T11:45:38.845Z,4.32
2018-02-01T11:46:38.752Z,4.35
2018-02-01T11:47:38.762Z,4.25
2018-02-01T11:48:38.962Z,4.16
2018-02-01T11:49:38.667Z,4.17
2018-02-01T11:50:38.618Z,4.20
2018-02-01T11:51:38.526Z,4.17
2018-02-01T11:52:38.533Z,4.13
2018-02-01T11:53:38.582Z,4.08
2018-02-01T11:54:38.787Z,4.20
2018-02-01T11:55:38.391Z,4.10
2018-02-01T11:56:38.348Z,4.10
2018-02-01T11:57:38.303Z,4.14
2018-02-01T11:58:38.256Z,4.11
2018-02-01T11:59:38.160Z,4.24
2018-02-01T12:00:38.566Z,4.20
2018-02-01T12:01:38.078Z,4.21
2018-02-01T12:02:38.073Z,4.21
2018-02-01T12:03:38.034Z,4.25
2018-02-01T12:04:37.993Z,4.29
2018-02-01T12:05:37.937Z,4.32
2018-02-01T12:06:38.143Z,4.38
2018-02-01T12:07:37.848Z,4.38
2018-02-01T12:08:37.812Z,4.38
2018-02-01T12:09:37.755Z,4.35
2018-02-01T12:10:37.810Z,4.43
2018-02-01T12:11:37.617Z,4.42
2018-02-01T12:12:37.871Z,4.42
2018-02-01T12:13:37.575Z,4.26
2018-02-01T12:14:37.481Z,4.25
2018-02-01T12:15:37.484Z,4.24
2018-02-01T12:16:37.388Z,4.17
2018-02-01T12:17:37.444Z,4.21
2018-02-01T12:18:37.349Z,4.18
2018-02-01T12:19:37.603Z,4.20
2018-02-01T12:20:37.256Z,4.11
2018-02-01T12:21:37.161Z,4.24
2018-02-01T12:22:37.169Z,4.24
2018-02-01T12:23:37.071Z,4.18
2018-02-01T12:24:37.084Z,4.13
2018-02-01T12:25:37.060Z,4.11
2018-02-01T12:26:37.339Z,4.16
2018-02-01T12:27:36.891Z,4.08
2018-02-01T12:28:36.894Z,4.08
2018-02-01T12:29:36.799Z,4.24
2018-02-01T12:30:36.758Z,4.16
2018-02-01T12:31:36.765Z,4.11
2018-02-01T12:32:36.712Z,4.25
2018-02-01T12:33:36.618Z,4.28
2018-02-01T12:34:36.624Z,4.20
2018-02-01T12:35:36.535Z,4.21
2018-02-01T12:36:36.534Z,4.21
2018-02-01T12:37:36.447Z,4.20
2018-02-01T12:38:36.445Z,4.28
2018-02-01T12:39:36.846Z,4.20
2018-02-01T12:40:36.360Z,4.24
2018-02-01T12:41:36.306Z,4.29
2018-02-01T12:42:36.258Z,4.25
2018-02-01T12:43:36.162Z,4.29
2018-02-01T12:44:36.172Z,4.26
2018-02-01T12:45:36.071Z,4.29
2018-02-01T12:46:36.334Z,4.29
2018-02-01T12:47:35.981Z,4.26
2018-02-01T12:48:35.989Z,4.31
2018-02-01T12:49:35.938Z,4.35
2018-02-01T12:50:35.843Z,4.34
2018-02-01T12:51:35.856Z,4.25
2018-02-01T12:52:35.825Z,4.24
2018-02-01T12:53:37.331Z,4.21
2018-02-01T12:54:36.249Z,4.21
2018-02-01T12:55:35.842Z,4.28
2018-02-01T12:56:35.623Z,4.21
2018-02-01T12:57:35.526Z,4.24
2018-02-01T12:58:35.533Z,4.31
2018-02-01T12:59:35.786Z,4.38
2018-02-01T13:00:35.389Z,4.50
2018-02-01T13:01:35.397Z,4.53
2018-02-01T13:02:35.357Z,4.49
2018-02-01T13:03:35.306Z,4.61
2018-02-01T13:04:35.278Z,4.56
2018-02-01T13:05:35.467Z,4.53
2018-02-01T13:06:35.129Z,4.59
2018-02-01T13:07:35.126Z,4.69
2018-02-01T13:08:35.033Z,4.68
2018-02-01T13:09:35.038Z,4.91
2018-02-01T13:10:34.939Z,4.86
2018-02-01T13:11:35.243Z,4.77
2018-02-01T13:12:34.957Z,4.94
2018-02-01T13:13:34.859Z,5.04
2018-02-01T13:14:34.811Z,5.05
2018-02-01T13:15:34.717Z,5.12
2018-02-01T13:16:34.678Z,5.24
2018-02-01T13:17:34.978Z,5.47
2018-02-01T13:18:34.734Z,5.55